Time;durP1;ratioP1;P1;durP2;ratioP2;P2;SDS_P1;SDS_P2;PMS_P1;PMS_P2;Temp;Humidity;BMP_temperature;BMP_pressure;BME280_temperature;BME280_humidity;BME280_pressure;Samples;Min_cycle;Max_cycle;Signal;HPM_P1;HPM_P2
2021/04/02 00:00:13;;;;;;;10.50;4.72;;;12.90;77.70;;;;;;5092239;28;20023;-79
2021/04/02 00:02:39;;;;;;;9.85;4.32;;;12.90;77.90;;;;;;5093071;28;20024;-79
2021/04/02 00:05:05;;;;;;;8.68;4.82;;;12.80;78.30;;;;;;5091632;28;20555;-79
2021/04/02 00:07:31;;;;;;;13.85;4.72;;;12.90;78.20;;;;;;5092106;28;20387;-78
2021/04/02 00:09:57;;;;;;;6.85;4.25;;;12.80;77.90;;;;;;5091285;28;20020;-78
2021/04/02 00:12:22;;;;;;;9.38;4.63;;;12.80;78.30;;;;;;5092368;28;20032;-78
2021/04/02 00:14:48;;;;;;;9.20;4.15;;;12.80;78.20;;;;;;5090926;28;20044;-78
2021/04/02 00:17:14;;;;;;;8.30;4.40;;;12.80;78.40;;;;;;5091101;28;20041;-78
2021/04/02 00:19:39;;;;;;;10.50;5.25;;;12.80;78.50;;;;;;5090975;28;20070;-78
2021/04/02 00:22:05;;;;;;;11.80;4.60;;;12.80;78.20;;;;;;5091139;28;20020;-79
2021/04/02 00:24:31;;;;;;;7.90;4.45;;;12.80;77.90;;;;;;5090887;28;20519;-80
2021/04/02 00:26:56;;;;;;;9.00;4.32;;;12.80;77.90;;;;;;5090499;28;20467;-80
2021/04/02 00:29:22;;;;;;;11.07;4.72;;;12.80;78.10;;;;;;5090538;28;20055;-78
2021/04/02 00:31:48;;;;;;;8.27;4.82;;;12.80;78.20;;;;;;5091004;28;20091;-78
2021/04/02 00:34:13;;;;;;;10.13;4.68;;;12.70;78.30;;;;;;5091067;28;20028;-78
2021/04/02 00:36:39;;;;;;;8.77;4.80;;;12.70;79.00;;;;;;5092095;28;20020;-79
2021/04/02 00:39:06;;;;;;;8.73;4.40;;;12.70;79.20;;;;;;5090837;28;20391;-78
2021/04/02 00:41:32;;;;;;;11.30;5.63;;;12.60;79.90;;;;;;5091047;28;20078;-80
2021/04/02 00:43:58;;;;;;;9.10;5.25;;;12.60;79.10;;;;;;5090883;28;20016;-78
2021/04/02 00:46:23;;;;;;;10.85;6.05;;;12.60;79.60;;;;;;5092226;28;20024;-78
2021/04/02 00:48:50;;;;;;;15.75;8.40;;;12.50;80.20;;;;;;5092418;28;20090;-78
2021/04/02 00:51:23;;;;;;;13.35;7.80;;;12.50;80.40;;;;;;5092010;28;20466;-78
2021/04/02 00:53:49;;;;;;;12.18;6.43;;;12.50;80.40;;;;;;5090810;28;20071;-78
2021/04/02 00:56:16;;;;;;;10.15;5.57;;;12.50;80.90;;;;;;5090772;28;20012;-78
2021/04/02 00:58:42;;;;;;;11.00;5.65;;;12.40;81.10;;;;;;5091108;28;20028;-77
2021/04/02 01:01:10;;;;;;;9.75;5.15;;;12.40;81.90;;;;;;5090182;28;20017;-78
2021/04/02 01:03:37;;;;;;;9.30;5.38;;;12.40;82.00;;;;;;5091938;28;20511;-78
2021/04/02 01:06:07;;;;;;;8.55;4.63;;;12.30;82.40;;;;;;5091617;28;20028;-78
2021/04/02 01:08:35;;;;;;;9.85;4.93;;;12.20;82.60;;;;;;5090679;28;20034;-77
2021/04/02 01:11:03;;;;;;;9.90;5.90;;;12.20;83.00;;;;;;5090849;28;20030;-80
2021/04/02 01:13:39;;;;;;;9.95;5.60;;;12.10;83.30;;;;;;5091800;28;20032;-79
2021/04/02 01:16:15;;;;;;;10.23;6.10;;;12.00;85.10;;;;;;5090396;28;20428;-78
2021/04/02 01:18:50;;;;;;;11.95;5.82;;;11.90;85.60;;;;;;5091449;28;20105;-79
2021/04/02 01:21:28;;;;;;;12.30;6.80;;;11.90;85.40;;;;;;5091884;28;20028;-79
2021/04/02 01:24:20;;;;;;;12.35;6.50;;;11.80;85.70;;;;;;5091988;28;20017;-78
2021/04/02 01:27:11;;;;;;;14.80;7.38;;;11.80;85.50;;;;;;5091690;28;20024;-78
2021/04/02 01:29:45;;;;;;;13.57;6.72;;;11.70;85.40;;;;;;5091756;28;20028;-78
2021/04/02 01:32:16;;;;;;;7.97;5.20;;;11.70;85.70;;;;;;5090403;28;20150;-78
2021/04/02 01:34:47;;;;;;;9.70;4.95;;;11.60;86.70;;;;;;5090600;28;20020;-79
2021/04/02 01:37:29;;;;;;;9.88;4.00;;;11.50;87.40;;;;;;5089817;28;20039;-78
2021/04/02 01:39:58;;;;;;;6.30;3.60;;;11.40;87.90;;;;;;5093721;28;20020;-78
2021/04/02 01:42:25;;;;;;;13.05;4.18;;;11.30;87.50;;;;;;5094115;28;20051;-79
2021/04/02 01:44:52;;;;;;;5.70;3.40;;;11.30;87.00;;;;;;5093997;28;20451;-79
2021/04/02 01:47:19;;;;;;;5.10;3.63;;;11.30;87.30;;;;;;5095201;28;20485;-81
2021/04/02 01:49:45;;;;;;;7.90;4.32;;;11.30;87.30;;;;;;5094550;28;20376;-78
2021/04/02 01:52:12;;;;;;;9.65;4.53;;;11.20;87.50;;;;;;5094016;28;20046;-79
2021/04/02 01:54:40;;;;;;;12.85;5.65;;;11.20;88.20;;;;;;5094521;28;20077;-79
2021/04/02 01:57:08;;;;;;;10.85;5.07;;;11.20;88.10;;;;;;5094076;28;20031;-79
2021/04/02 01:59:35;;;;;;;12.27;4.72;;;11.20;87.90;;;;;;5094142;28;20020;-78
2021/04/02 02:02:02;;;;;;;6.90;4.10;;;11.10;88.40;;;;;;5094329;28;20051;-79
2021/04/02 02:04:31;;;;;;;9.00;4.40;;;11.00;88.40;;;;;;5095417;28;20383;-79
2021/04/02 02:06:59;;;;;;;8.85;4.25;;;11.10;88.20;;;;;;5094165;28;20438;-80
2021/04/02 02:09:38;;;;;;;10.70;4.40;;;11.00;88.20;;;;;;5094045;28;20020;-78
2021/04/02 02:12:08;;;;;;;8.02;4.28;;;11.00;88.60;;;;;;5094126;28;20039;-78
2021/04/02 02:14:35;;;;;;;8.27;4.03;;;10.90;88.60;;;;;;5093650;28;20035;-79
2021/04/02 02:17:05;;;;;;;7.35;4.25;;;10.90;89.70;;;;;;5094890;28;20024;-79
2021/04/02 02:19:34;;;;;;;7.60;3.67;;;10.80;89.50;;;;;;5095264;28;20020;-79
2021/04/02 02:22:03;;;;;;;9.93;4.20;;;10.80;89.90;;;;;;5095234;28;20028;-78
2021/04/02 02:24:29;;;;;;;9.07;3.60;;;10.70;90.10;;;;;;5093782;28;20095;-79
2021/04/02 02:26:56;;;;;;;8.43;4.88;;;10.70;90.40;;;;;;5093758;28;20034;-77
2021/04/02 02:29:21;;;;;;;9.23;3.88;;;10.60;90.50;;;;;;5095019;28;20363;-79
2021/04/02 02:31:47;;;;;;;8.60;4.70;;;10.60;90.70;;;;;;5093666;28;20028;-78
2021/04/02 02:34:13;;;;;;;10.95;4.13;;;10.70;90.70;;;;;;5093722;28;20027;-78
2021/04/02 02:36:39;;;;;;;9.88;4.05;;;10.60;90.70;;;;;;5093475;28;20433;-78
2021/04/02 02:39:10;;;;;;;8.80;4.38;;;10.60;90.80;;;;;;5093644;28;20548;-79
2021/04/02 02:41:38;;;;;;;9.18;4.07;;;10.60;90.80;;;;;;5094936;28;20035;-79
2021/04/02 02:44:04;;;;;;;8.82;4.55;;;10.60;90.80;;;;;;5093735;28;20039;-79
2021/04/02 02:46:31;;;;;;;12.05;4.03;;;10.60;90.70;;;;;;5093329;28;20024;-78
2021/04/02 02:49:04;;;;;;;9.40;4.88;;;10.60;90.60;;;;;;5093390;28;20024;-78
2021/04/02 02:51:31;;;;;;;11.00;4.85;;;10.70;90.50;;;;;;5092984;28;20067;-78
2021/04/02 02:54:06;;;;;;;11.35;5.40;;;10.80;90.30;;;;;;5094502;28;20089;-78
2021/04/02 02:56:35;;;;;;;13.10;5.88;;;10.80;90.10;;;;;;5093499;28;20051;-79
2021/04/02 02:59:06;;;;;;;11.00;5.15;;;10.90;90.00;;;;;;5093021;28;20024;-78
2021/04/02 03:01:34;;;;;;;9.65;4.50;;;10.90;89.30;;;;;;5093251;28;20425;-78
2021/04/02 03:04:01;;;;;;;11.48;5.05;;;10.90;89.20;;;;;;5092881;28;20371;-79
2021/04/02 03:06:32;;;;;;;10.48;5.22;;;11.00;89.10;;;;;;5094362;28;20424;-78
2021/04/02 03:08:59;;;;;;;12.07;4.60;;;11.00;89.80;;;;;;5092796;28;20024;-77
2021/04/02 03:11:26;;;;;;;8.60;4.45;;;11.00;89.90;;;;;;5094191;28;20347;-78
2021/04/02 03:13:54;;;;;;;9.70;4.63;;;10.90;89.90;;;;;;5092853;28;20084;-78
2021/04/02 03:16:22;;;;;;;8.32;4.47;;;10.90;90.20;;;;;;5092737;28;20032;-78
2021/04/02 03:18:52;;;;;;;12.23;5.32;;;10.80;90.10;;;;;;5093866;28;20019;-77
2021/04/02 03:21:19;;;;;;;9.57;4.72;;;10.80;90.00;;;;;;5092886;28;20027;-79
2021/04/02 03:23:46;;;;;;;10.55;4.60;;;10.80;90.00;;;;;;5092671;28;20060;-78
2021/04/02 03:26:14;;;;;;;14.10;4.80;;;10.80;90.00;;;;;;5092722;28;20020;-79
2021/04/02 03:28:43;;;;;;;9.10;4.32;;;10.80;89.90;;;;;;5092327;28;20034;-78
2021/04/02 03:31:10;;;;;;;10.35;4.63;;;10.80;90.40;;;;;;5092332;28;20367;-79
2021/04/02 03:33:40;;;;;;;10.95;4.40;;;10.70;90.70;;;;;;5092643;28;20101;-78
2021/04/02 03:36:11;;;;;;;10.35;4.72;;;10.70;90.80;;;;;;5092295;28;20016;-80
2021/04/02 03:38:40;;;;;;;10.10;4.00;;;10.60;90.80;;;;;;5093637;28;20081;-78
2021/04/02 03:41:11;;;;;;;12.68;4.90;;;10.60;91.00;;;;;;5092295;28;20077;-78
2021/04/02 03:43:39;;;;;;;15.52;7.57;;;10.60;91.60;;;;;;5092555;28;20478;-78
2021/04/02 03:46:08;;;;;;;13.80;4.35;;;11.40;90.30;;;;;;5093571;28;20031;-78
2021/04/02 03:48:38;;;;;;;10.60;4.60;;;11.30;90.20;;;;;;5093413;28;20077;-79
2021/04/02 03:51:06;;;;;;;9.43;4.80;;;11.10;90.20;;;;;;5096053;28;20023;-79
2021/04/02 03:53:40;;;;;;;6.70;4.55;;;11.00;90.40;;;;;;5093149;28;20169;-79
2021/04/02 03:56:09;;;;;;;13.20;4.30;;;10.90;90.70;;;;;;5092081;28;20028;-77
2021/04/02 03:58:35;;;;;;;15.77;4.75;;;10.80;90.70;;;;;;5091787;28;20115;-78
2021/04/02 04:01:13;;;;;;;9.40;4.20;;;10.70;91.00;;;;;;5091640;28;20027;-80
2021/04/02 04:03:41;;;;;;;17.67;5.85;;;10.70;91.30;;;;;;5092042;28;20115;-78
2021/04/02 04:06:12;;;;;;;9.25;4.53;;;10.60;91.40;;;;;;5091648;28;20028;-80
2021/04/02 04:08:40;;;;;;;8.98;5.32;;;10.60;90.90;;;;;;5091789;28;20076;-78
2021/04/02 04:11:08;;;;;;;10.93;5.78;;;10.70;90.70;;;;;;5093250;28;20034;-79
2021/04/02 04:13:37;;;;;;;13.52;6.00;;;10.70;91.00;;;;;;5091815;28;20032;-80
2021/04/02 04:16:05;;;;;;;11.50;4.57;;;10.70;91.10;;;;;;5092974;28;20478;-79
2021/04/02 04:18:32;;;;;;;10.00;5.10;;;10.60;91.40;;;;;;5091452;28;20027;-79
2021/04/02 04:21:01;;;;;;;11.35;5.38;;;10.50;91.70;;;;;;5091538;28;20030;-81
2021/04/02 04:23:27;;;;;;;11.82;5.15;;;10.50;91.80;;;;;;5091709;28;20481;-79
2021/04/02 04:25:56;;;;;;;12.27;5.32;;;10.50;91.80;;;;;;5092761;28;20371;-80
2021/04/02 04:28:23;;;;;;;19.77;14.38;;;10.40;92.00;;;;;;5091366;28;20028;-80
2021/04/02 04:30:51;;;;;;;13.95;6.05;;;10.40;91.90;;;;;;5091147;28;20062;-79
2021/04/02 04:33:18;;;;;;;10.15;7.32;;;10.40;91.90;;;;;;5092671;28;20479;-77
2021/04/02 04:35:46;;;;;;;10.07;6.22;;;10.40;91.70;;;;;;5091387;28;20024;-80
2021/04/02 04:38:14;;;;;;;15.15;6.20;;;10.40;91.80;;;;;;5091338;28;20028;-81
2021/04/02 04:40:41;;;;;;;12.07;7.15;;;10.40;91.80;;;;;;5092578;28;20023;-80
2021/04/02 04:43:11;;;;;;;10.52;5.95;;;10.50;91.80;;;;;;5091388;28;20069;-80
2021/04/02 04:45:37;;;;;;;11.85;6.45;;;10.50;91.90;;;;;;5091436;28;20103;-79
2021/04/02 04:48:02;;;;;;;29.90;21.85;;;10.50;91.80;;;;;;5091156;28;20038;-78
2021/04/02 04:50:28;;;;;;;20.15;11.05;;;10.50;91.90;;;;;;5092500;28;20463;-80
2021/04/02 04:53:01;;;;;;;13.82;8.32;;;10.40;92.00;;;;;;5092502;28;20491;-80
2021/04/02 04:55:30;;;;;;;13.32;6.55;;;10.40;92.00;;;;;;5092428;28;20019;-80
2021/04/02 04:57:58;;;;;;;15.05;6.07;;;10.40;92.40;;;;;;5092002;28;20056;-81
2021/04/02 05:00:27;;;;;;;11.63;5.47;;;10.40;92.20;;;;;;5095307;28;20387;-80
2021/04/02 05:02:55;;;;;;;10.73;5.88;;;10.40;92.20;;;;;;5091497;28;20100;-79
2021/04/02 05:05:29;;;;;;;11.73;4.88;;;10.50;92.10;;;;;;5093193;28;20451;-84
2021/04/02 05:07:57;;;;;;;19.52;6.57;;;10.50;92.20;;;;;;5091684;28;20024;-82
2021/04/02 05:10:23;;;;;;;13.70;7.05;;;10.50;92.00;;;;;;5092202;28;20020;-80
2021/04/02 05:12:51;;;;;;;12.32;5.97;;;10.50;92.10;;;;;;5091316;28;20043;-82
2021/04/02 05:15:19;;;;;;;14.27;6.13;;;10.50;92.00;;;;;;5095829;28;20024;-81
2021/04/02 05:17:46;;;;;;;11.82;6.32;;;10.60;91.90;;;;;;5095499;28;20178;-79
2021/04/02 05:20:12;;;;;;;14.63;7.70;;;10.70;91.50;;;;;;5096836;28;20020;-80
2021/04/02 05:22:37;;;;;;;11.52;5.85;;;10.80;91.20;;;;;;5096979;28;20030;-81
2021/04/02 05:25:07;;;;;;;19.83;6.85;;;10.80;91.20;;;;;;5095593;28;20110;-80
2021/04/02 05:27:33;;;;;;;15.07;7.00;;;10.90;91.20;;;;;;5095317;28;20020;-80
2021/04/02 05:29:58;;;;;;;15.15;7.13;;;10.90;91.30;;;;;;5095122;28;20455;-79
2021/04/02 05:32:25;;;;;;;17.00;6.07;;;10.90;91.40;;;;;;5094848;28;20078;-80
2021/04/02 05:34:50;;;;;;;15.45;6.10;;;11.00;91.00;;;;;;5095101;28;20020;-80
2021/04/02 05:37:16;;;;;;;11.43;5.63;;;11.00;91.10;;;;;;5096284;28;20536;-80
2021/04/02 05:39:41;;;;;;;17.90;4.72;;;11.10;91.80;;;;;;5096594;28;20056;-79
2021/04/02 05:42:09;;;;;;;12.77;4.90;;;11.10;92.00;;;;;;5094909;28;20115;-79
2021/04/02 05:44:36;;;;;;;23.30;7.40;;;11.20;91.40;;;;;;5095084;28;20016;-78
2021/04/02 05:47:05;;;;;;;12.70;6.45;;;11.30;90.80;;;;;;5094644;28;20024;-79
2021/04/02 05:49:32;;;;;;;14.18;5.25;;;11.40;90.80;;;;;;5096251;28;20085;-77
2021/04/02 05:51:58;;;;;;;12.70;7.38;;;11.40;90.80;;;;;;5094536;28;20090;-78
2021/04/02 05:54:34;;;;;;;12.52;6.40;;;11.40;90.80;;;;;;5094728;28;20032;-80
2021/04/02 05:57:01;;;;;;;15.27;6.97;;;11.40;90.70;;;;;;5095695;28;20024;-79
2021/04/02 05:59:27;;;;;;;12.85;5.60;;;11.40;90.90;;;;;;5095907;28;20363;-78
2021/04/02 06:01:54;;;;;;;11.93;5.78;;;11.40;91.00;;;;;;5094520;28;20028;-80
2021/04/02 06:04:20;;;;;;;9.25;4.88;;;11.50;90.80;;;;;;5095234;28;20098;-79
2021/04/02 06:06:47;;;;;;;14.57;5.53;;;11.60;90.20;;;;;;5094519;28;20161;-80
2021/04/02 06:09:13;;;;;;;16.55;5.85;;;11.80;90.40;;;;;;5095845;28;20476;-79
2021/04/02 06:11:39;;;;;;;14.13;6.82;;;11.90;90.10;;;;;;5094568;28;20494;-79
2021/04/02 06:14:06;;;;;;;18.45;6.95;;;12.00;89.70;;;;;;5095659;28;20024;-82
2021/04/02 06:16:32;;;;;;;16.70;8.00;;;12.20;89.30;;;;;;5094547;28;20023;-79
2021/04/02 06:19:10;;;;;;;13.48;5.43;;;12.40;88.70;;;;;;5094813;28;20028;-79
2021/04/02 06:21:51;;;;;;;20.30;8.77;;;13.20;96.50;;;;;;5095640;28;20467;-78
2021/04/02 06:24:45;;;;;;;26.65;16.90;;;13.70;90.20;;;;;;5093710;28;20631;-79
2021/04/02 06:27:12;;;;;;;23.23;15.13;;;13.80;84.10;;;;;;5093653;28;20081;-79
2021/04/02 06:30:01;;;;;;;24.45;15.43;;;14.00;84.00;;;;;;5093879;28;20019;-80
2021/04/02 06:32:35;;;;;;;25.13;15.55;;;14.10;80.00;;;;;;5093991;28;20070;-78
2021/04/02 06:35:09;;;;;;;26.45;16.60;;;14.10;83.40;;;;;;5093342;28;20174;-78
2021/04/02 06:37:35;;;;;;;32.25;19.67;;;14.10;78.60;;;;;;5094452;28;20042;-78
2021/04/02 06:40:00;;;;;;;32.80;21.35;;;14.00;77.20;;;;;;5093496;28;20482;-78
2021/04/02 06:42:33;;;;;;;32.90;21.90;;;13.90;77.50;;;;;;5093613;28;20367;-79
2021/04/02 06:45:04;;;;;;;35.92;23.35;;;13.90;77.20;;;;;;5094935;28;20032;-79
2021/04/02 06:47:37;;;;;;;36.00;23.85;;;13.80;75.90;;;;;;5093304;28;20028;-80
2021/04/02 06:50:20;;;;;;;34.53;22.75;;;13.80;75.60;;;;;;5093448;28;20482;-79
2021/04/02 06:52:49;;;;;;;36.38;22.98;;;13.80;76.40;;;;;;5093056;28;20044;-80
2021/04/02 06:55:15;;;;;;;36.55;24.15;;;13.90;77.30;;;;;;5092838;28;20020;-79
2021/04/02 06:57:52;;;;;;;37.75;25.13;;;13.90;77.90;;;;;;5094156;28;20108;-80
2021/04/02 07:00:28;;;;;;;38.00;25.35;;;13.80;76.40;;;;;;5092621;28;20027;-79
2021/04/02 07:02:54;;;;;;;38.42;24.48;;;13.90;79.80;;;;;;5093016;28;20024;-80
2021/04/02 07:05:25;;;;;;;35.45;24.98;;;14.00;76.80;;;;;;5093063;28;20113;-79
2021/04/02 07:08:04;;;;;;;39.00;26.10;;;13.90;77.80;;;;;;5092911;28;20024;-79
2021/04/02 07:10:32;;;;;;;39.97;26.75;;;14.00;78.70;;;;;;5092816;28;20024;-78
2021/04/02 07:13:02;;;;;;;38.38;25.48;;;14.10;78.40;;;;;;5078790;28;20166;-82
2021/04/02 07:15:29;;;;;;;35.50;25.10;;;14.10;78.10;;;;;;5073805;28;20027;-82
2021/04/02 07:17:55;;;;;;;37.30;24.85;;;14.20;78.90;;;;;;5072822;28;20047;-80
2021/04/02 07:20:21;;;;;;;36.38;25.42;;;14.20;78.00;;;;;;5073846;28;20016;-79
2021/04/02 07:22:47;;;;;;;38.38;26.10;;;14.20;77.20;;;;;;5072583;28;20498;-79
2021/04/02 07:25:13;;;;;;;36.42;24.70;;;14.40;77.60;;;;;;5072431;28;20111;-81
2021/04/02 07:27:39;;;;;;;41.58;26.00;;;14.50;77.30;;;;;;5073532;28;20021;-77
2021/04/02 07:30:08;;;;;;;41.60;26.23;;;14.60;73.50;;;;;;5073344;28;20732;-79
2021/04/02 07:32:39;;;;;;;42.38;25.15;;;14.70;74.30;;;;;;5073678;28;20055;-78
2021/04/02 07:35:05;;;;;;;36.47;23.80;;;14.70;75.30;;;;;;5072307;28;20464;-81
2021/04/02 07:37:37;;;;;;;38.65;25.90;;;14.80;72.30;;;;;;5071731;28;20028;-82
2021/04/02 07:40:07;;;;;;;40.58;26.13;;;14.80;71.80;;;;;;5072315;28;20021;-79
2021/04/02 07:42:33;;;;;;;38.45;24.00;;;14.80;72.00;;;;;;5073449;28;20017;-79
2021/04/02 07:45:00;;;;;;;38.90;24.90;;;14.70;71.00;;;;;;5073577;28;20051;-79
2021/04/02 07:47:26;;;;;;;36.17;24.23;;;14.80;70.50;;;;;;5072231;28;20074;-81
2021/04/02 07:49:54;;;;;;;37.17;25.45;;;14.80;70.50;;;;;;5071930;28;20024;-78
2021/04/02 07:52:30;;;;;;;40.05;24.60;;;14.90;70.70;;;;;;5071938;28;20135;-79
2021/04/02 07:55:16;;;;;;;37.47;24.83;;;15.20;72.20;;;;;;5072062;28;20021;-80
2021/04/02 07:57:54;;;;;;;;;;;15.40;69.10;;;;;;5072293;28;20394;-79
2021/04/02 08:00:27;;;;;;;32.40;23.58;;;15.40;67.70;;;;;;5071878;28;19904;-80
2021/04/02 08:03:13;;;;;;;37.58;24.52;;;15.50;69.00;;;;;;5073331;28;20464;-81
2021/04/02 08:05:53;;;;;;;33.15;24.13;;;15.70;67.50;;;;;;5071918;28;20052;-80
2021/04/02 08:08:20;;;;;;;36.92;23.92;;;15.70;66.90;;;;;;5079795;28;20039;-78
2021/04/02 08:11:25;;;;;;;35.08;24.65;;;15.80;66.20;;;;;;5092582;28;20107;-80
2021/04/02 08:13:58;;;;;;;35.15;25.40;;;15.80;66.00;;;;;;5092445;28;20032;-79
2021/04/02 08:16:33;;;;;;;41.88;26.33;;;15.90;64.70;;;;;;5092795;28;20032;-79
2021/04/02 08:19:20;;;;;;;41.60;26.10;;;16.10;65.00;;;;;;5091355;28;20056;-78
2021/04/02 08:21:51;;;;;;;37.97;26.85;;;16.10;63.20;;;;;;5092943;28;20318;-78
2021/04/02 08:24:19;;;;;;;38.10;27.35;;;15.90;64.10;;;;;;5092783;28;20036;-76
2021/04/02 08:26:45;;;;;;;41.25;27.33;;;15.80;64.80;;;;;;5092569;28;20494;-75
2021/04/02 08:29:13;;;;;;;40.85;28.88;;;15.90;64.60;;;;;;5092815;28;20108;-75
2021/04/02 08:31:42;;;;;;;36.78;28.30;;;15.90;64.00;;;;;;5092700;28;20046;-77
2021/04/02 08:34:08;;;;;;;43.22;29.77;;;15.90;65.50;;;;;;5092515;28;20374;-76
2021/04/02 08:36:34;;;;;;;41.40;29.35;;;15.90;63.90;;;;;;5092455;28;20513;-75
2021/04/02 08:39:00;;;;;;;41.92;30.00;;;15.90;66.00;;;;;;5092277;28;20012;-78
2021/04/02 08:41:31;;;;;;;39.15;26.55;;;15.80;65.30;;;;;;5092173;28;20028;-76
2021/04/02 08:44:00;;;;;;;40.30;28.85;;;15.80;66.10;;;;;;5092345;28;20032;-76
2021/04/02 08:46:40;;;;;;;40.50;30.38;;;15.80;64.70;;;;;;5092449;28;20032;-78
2021/04/02 08:49:07;;;;;;;45.58;30.52;;;15.70;65.50;;;;;;5091807;28;20027;-77
2021/04/02 08:51:34;;;;;;;41.05;29.83;;;15.60;66.80;;;;;;5092056;28;20439;-80
2021/04/02 08:54:00;;;;;;;44.75;30.40;;;15.60;67.70;;;;;;5092567;28;20703;-75
2021/04/02 08:56:29;;;;;;;41.33;30.77;;;15.70;65.70;;;;;;5092214;28;20039;-77
2021/04/02 08:58:56;;;;;;;48.13;31.55;;;15.60;66.30;;;;;;5091005;28;20460;-77
2021/04/02 09:01:22;;;;;;;42.08;30.45;;;15.70;66.10;;;;;;5092320;28;20039;-75
2021/04/02 09:03:48;;;;;;;45.90;31.63;;;15.90;66.70;;;;;;5092112;28;20021;-77
2021/04/02 09:06:15;;;;;;;42.75;30.05;;;16.00;65.10;;;;;;5092277;28;20154;-78
2021/04/02 09:08:41;;;;;;;44.55;31.73;;;16.10;65.40;;;;;;5092135;28;20031;-79
2021/04/02 09:11:12;;;;;;;42.28;31.13;;;16.00;64.60;;;;;;5092055;28;20103;-77
2021/04/02 09:13:39;;;;;;;46.70;31.60;;;16.10;64.20;;;;;;5092213;28;20459;-77
2021/04/02 09:16:10;;;;;;;55.20;33.50;;;16.10;64.40;;;;;;5092047;28;20099;-78
2021/04/02 09:18:56;;;;;;;46.90;33.47;;;16.10;63.80;;;;;;5092099;28;20455;-79
2021/04/02 09:21:23;;;;;;;45.08;32.60;;;16.10;63.50;;;;;;5071749;28;20025;-77
2021/04/02 09:23:50;;;;;;;47.60;32.20;;;16.30;64.20;;;;;;5069814;28;20044;-78
2021/04/02 09:26:17;;;;;;;42.63;30.42;;;16.70;63.30;;;;;;5070428;28;20071;-75
2021/04/02 09:28:43;;;;;;;44.72;30.92;;;16.80;61.10;;;;;;5088085;28;20020;-78
2021/04/02 09:31:27;;;;;;;54.42;32.47;;;16.70;61.90;;;;;;5092065;28;20031;-76
2021/04/02 09:33:58;;;;;;;43.05;28.70;;;16.60;61.60;;;;;;5089532;28;20151;-78
2021/04/02 09:36:27;;;;;;;42.53;27.90;;;16.50;60.30;;;;;;5089563;28;20026;-76
2021/04/02 09:39:08;;;;;;;41.72;27.63;;;16.40;59.60;;;;;;5091485;28;20020;-75
2021/04/02 09:41:35;;;;;;;36.22;26.27;;;16.10;59.00;;;;;;5091887;28;20078;-74
2021/04/02 09:44:10;;;;;;;38.53;26.88;;;15.90;59.00;;;;;;5091422;28;20027;-74
2021/04/02 09:46:38;;;;;;;41.30;27.38;;;15.50;60.20;;;;;;5092065;28;20039;-77
2021/04/02 09:49:12;;;;;;;38.22;25.63;;;15.50;60.80;;;;;;5091971;28;20091;-75
2021/04/02 09:51:43;;;;;;;35.33;26.63;;;15.40;60.60;;;;;;5091611;28;20056;-76
2021/04/02 09:54:09;;;;;;;41.13;26.02;;;15.30;61.50;;;;;;5090423;28;20036;-77
2021/04/02 09:56:36;;;;;;;39.15;26.13;;;15.20;62.20;;;;;;5091657;28;20051;-75
2021/04/02 09:59:03;;;;;;;36.58;25.67;;;15.30;61.90;;;;;;5092017;28;20054;-77
2021/04/02 10:01:31;;;;;;;34.85;25.63;;;15.30;61.10;;;;;;5095451;28;20356;-77
2021/04/02 10:03:56;;;;;;;40.08;26.30;;;15.20;61.40;;;;;;5094109;28;20028;-79
2021/04/02 10:06:22;;;;;;;41.33;24.83;;;15.30;61.90;;;;;;5095205;28;20044;-77
2021/04/02 10:08:48;;;;;;;35.85;25.38;;;15.40;62.40;;;;;;5093750;28;20085;-79
2021/04/02 10:11:14;;;;;;;36.00;25.77;;;15.50;61.30;;;;;;5093013;28;20035;-74
2021/04/02 10:13:39;;;;;;;36.55;25.48;;;15.50;61.50;;;;;;5077992;28;20035;-74
2021/04/02 10:16:06;;;;;;;35.38;24.27;;;15.50;60.70;;;;;;5094673;28;20484;-73
2021/04/02 10:18:32;;;;;;;42.30;27.23;;;15.60;61.40;;;;;;5094986;28;20023;-74
2021/04/02 10:20:58;;;;;;;40.53;26.83;;;15.90;61.50;;;;;;5094714;28;20077;-74
2021/04/02 10:23:23;;;;;;;36.22;25.88;;;16.10;60.60;;;;;;5094741;28;20077;-77
2021/04/02 10:25:49;;;;;;;40.60;25.95;;;16.30;59.00;;;;;;5093617;28;20471;-75
2021/04/02 10:28:15;;;;;;;37.88;25.65;;;16.50;59.60;;;;;;5094667;28;20028;-75
2021/04/02 10:30:41;;;;;;;30.77;23.38;;;16.40;59.10;;;;;;5094878;28;20020;-74
2021/04/02 10:33:07;;;;;;;37.20;25.95;;;16.30;58.80;;;;;;5094478;28;20032;-75
2021/04/02 10:35:35;;;;;;;34.35;25.80;;;16.20;61.20;;;;;;5092369;28;20031;-77
2021/04/02 10:38:01;;;;;;;36.25;25.63;;;16.20;59.80;;;;;;5093935;28;20024;-74
2021/04/02 10:40:27;;;;;;;37.35;25.88;;;16.30;60.10;;;;;;5093735;28;20020;-74
2021/04/02 10:42:53;;;;;;;36.85;25.98;;;16.40;58.90;;;;;;5093674;28;20081;-78
2021/04/02 10:45:19;;;;;;;36.92;26.73;;;16.30;58.90;;;;;;5092732;28;20514;-76
2021/04/02 10:47:44;;;;;;;40.35;27.05;;;16.10;59.60;;;;;;5093790;28;20035;-77
2021/04/02 10:50:11;;;;;;;36.97;26.35;;;16.10;60.50;;;;;;5093769;28;20383;-76
2021/04/02 10:52:37;;;;;;;39.10;26.95;;;16.10;60.60;;;;;;5093628;28;20398;-76
2021/04/02 10:55:04;;;;;;;50.08;34.15;;;16.10;60.70;;;;;;5093792;28;20016;-77
2021/04/02 10:57:29;;;;;;;44.70;31.30;;;16.20;64.50;;;;;;5091931;28;20092;-76
2021/04/02 10:59:55;;;;;;;41.90;27.13;;;16.30;64.40;;;;;;5093890;28;20032;-75
2021/04/02 11:02:21;;;;;;;37.67;27.02;;;16.30;62.10;;;;;;5093849;28;20375;-76
2021/04/02 11:04:46;;;;;;;43.65;28.48;;;16.50;61.70;;;;;;5093587;28;20027;-75
2021/04/02 11:07:12;;;;;;;37.75;26.80;;;16.70;61.60;;;;;;5093494;28;20039;-75
2021/04/02 11:09:38;;;;;;;35.50;26.70;;;16.90;59.50;;;;;;5093308;28;20028;-75
2021/04/02 11:12:04;;;;;;;35.60;24.30;;;16.90;59.00;;;;;;5091892;28;20055;-76
2021/04/02 11:14:29;;;;;;;41.05;27.63;;;16.70;59.30;;;;;;5093375;28;20027;-76
2021/04/02 11:16:57;;;;;;;45.65;26.15;;;16.60;59.70;;;;;;5092993;28;20390;-76
2021/04/02 11:19:23;;;;;;;32.35;23.77;;;16.50;63.20;;;;;;5093048;28;20024;-75
2021/04/02 11:21:50;;;;;;;37.08;26.08;;;16.50;64.70;;;;;;5093587;28;20024;-75
2021/04/02 11:24:16;;;;;;;36.78;25.20;;;16.60;62.60;;;;;;5093017;28;20036;-78
2021/04/02 11:26:41;;;;;;;37.10;26.25;;;16.60;60.50;;;;;;5093174;28;20077;-79
2021/04/02 11:29:07;;;;;;;36.83;25.70;;;16.50;60.00;;;;;;5092226;28;20028;-76
2021/04/02 11:31:33;;;;;;;38.30;25.92;;;16.50;59.70;;;;;;5093489;28;20476;-79
2021/04/02 11:33:58;;;;;;;40.63;25.83;;;16.40;59.90;;;;;;5093849;28;20028;-77
2021/04/02 11:36:24;;;;;;;34.80;24.13;;;16.50;60.00;;;;;;5093621;28;20016;-76
2021/04/02 11:38:50;;;;;;;37.58;23.80;;;16.70;60.90;;;;;;5093525;28;20032;-77
2021/04/02 11:41:15;;;;;;;38.22;25.65;;;17.00;60.10;;;;;;5093489;28;20023;-78
2021/04/02 11:43:42;;;;;;;39.13;25.88;;;17.30;58.70;;;;;;5093331;28;20486;-77
2021/04/02 11:46:07;;;;;;;32.95;23.30;;;17.20;58.20;;;;;;5091782;28;20031;-78
2021/04/02 11:48:33;;;;;;;35.88;24.77;;;17.40;58.40;;;;;;5093178;28;20023;-77
2021/04/02 11:50:59;;;;;;;37.13;24.13;;;17.40;57.80;;;;;;5093313;28;20034;-79
2021/04/02 11:53:25;;;;;;;36.35;24.98;;;17.50;58.10;;;;;;5091614;28;20406;-78
2021/04/02 11:55:51;;;;;;;31.10;23.33;;;17.50;57.50;;;;;;5093418;28;20020;-78
2021/04/02 11:58:17;;;;;;;33.95;23.88;;;17.40;57.70;;;;;;5092960;28;20112;-76
2021/04/02 12:00:43;;;;;;;32.70;23.38;;;17.40;56.80;;;;;;5093069;28;20039;-80
2021/04/02 12:03:09;;;;;;;33.22;23.90;;;17.40;56.50;;;;;;5091773;28;20435;-78
2021/04/02 12:05:35;;;;;;;38.65;24.60;;;17.30;57.40;;;;;;5091739;28;20123;-79
2021/04/02 12:08:01;;;;;;;34.60;23.55;;;17.30;57.20;;;;;;5091845;28;20490;-76
2021/04/02 12:10:27;;;;;;;30.85;24.23;;;17.40;57.70;;;;;;5092510;28;20028;-78
2021/04/02 12:12:52;;;;;;;36.83;23.13;;;17.70;56.80;;;;;;5092868;28;20479;-78
2021/04/02 12:15:18;;;;;;;31.33;21.80;;;17.80;56.60;;;;;;5092101;28;20387;-77
2021/04/02 12:17:44;;;;;;;31.42;23.02;;;18.20;56.00;;;;;;5091061;28;20463;-77
2021/04/02 12:20:14;;;;;;;31.00;22.63;;;18.30;54.80;;;;;;5092862;28;20031;-77
2021/04/02 12:22:40;;;;;;;30.05;22.13;;;18.40;54.30;;;;;;5092324;28;20055;-77
2021/04/02 12:25:09;;;;;;;34.28;22.50;;;18.30;54.10;;;;;;5091438;28;20058;-78
2021/04/02 12:27:34;;;;;;;34.30;22.88;;;18.10;54.30;;;;;;5092859;28;20016;-77
2021/04/02 12:30:00;;;;;;;33.30;23.45;;;18.10;54.60;;;;;;5090953;28;20031;-80
2021/04/02 12:32:26;;;;;;;34.03;23.17;;;17.90;55.10;;;;;;5091314;28;20474;-80
2021/04/02 12:34:52;;;;;;;32.63;22.08;;;18.00;55.60;;;;;;5091478;28;20111;-81
2021/04/02 12:37:17;;;;;;;28.55;22.02;;;18.20;54.60;;;;;;5091255;28;20031;-79
2021/04/02 12:39:43;;;;;;;29.58;21.83;;;18.20;55.30;;;;;;5091553;28;20016;-78